Time,TemperatureF,DewpointF,PressureIn,WindDirection,WindDirectionDegrees,WindSpeedMPH,WindSpeedGustMPH,Humidity,HourlyPrecipIn,Conditions,Clouds,dailyrainin,SoftwareType,DateUTC
2013-02-20 06:32:00,25.3,17.9,30.00,North,0,0.0,4.0,73,0.00,,,0.00,Wunderground v.1.15,2013-02-20 14:32:00,
2013-02-20 06:38:00,25.0,17.9,30.00,North,0,0.0,4.0,74,0.00,,,0.00,Wunderground v.1.15,2013-02-20 14:38:00,
2013-02-20 06:43:00,24.7,17.6,30.00,North,0,0.0,0.0,74,0.00,,,0.00,Wunderground v.1.15,2013-02-20 14:43:00,
2013-02-20 06:45:00,24.5,17.4,30.00,North,0,0.0,0.0,74,0.00,,,0.00,Wunderground v.1.15,2013-02-20 14:45:00,
2013-02-20 06:51:00,24.4,17.6,30.00,North,0,0.0,0.0,75,0.00,,,0.00,Wunderground v.1.15,2013-02-20 14:51:00,
2013-02-20 06:58:00,24.2,17.4,30.00,North,0,0.0,0.0,75,0.00,,,0.00,Wunderground v.1.15,2013-02-20 14:58:00,
2013-02-20 07:04:00,24.2,17.7,30.01,North,0,0.0,0.0,76,0.00,,,0.00,Wunderground v.1.15,2013-02-20 15:04:00,
2013-02-20 07:10:00,24.5,17.7,30.01,North,0,0.0,0.0,75,0.00,,,0.00,Wunderground v.1.15,2013-02-20 15:10:00,
2013-02-20 07:15:00,24.8,17.7,30.03,North,0,0.0,0.0,74,0.00,,,0.00,Wunderground v.1.15,2013-02-20 15:15:00,
2013-02-20 07:21:00,24.7,17.6,30.03,North,0,0.0,0.0,74,0.00,,,0.00,Wunderground v.1.15,2013-02-20 15:21:00,
2013-02-20 07:28:00,24.4,17.3,30.03,North,0,0.0,0.0,74,0.00,,,0.00,Wunderground v.1.15,2013-02-20 15:28:00,
2013-02-20 07:33:00,24.2,17.4,30.05,ENE,58,0.0,1.0,75,0.00,,,0.00,Wunderground v.1.15,2013-02-20 15:33:00,
2013-02-20 07:40:00,24.2,17.7,30.05,SE,131,0.0,0.0,76,0.00,,,0.00,Wunderground v.1.15,2013-02-20 15:40:00,
2013-02-20 07:45:00,24.4,18.2,30.06,SE,130,0.0,0.0,77,0.00,,,0.00,Wunderground v.1.15,2013-02-20 15:45:00,
2013-02-20 07:51:00,24.8,18.3,30.06,SE,130,0.0,0.0,76,0.00,,,0.00,Wunderground v.1.15,2013-02-20 15:51:00,
2013-02-20 07:58:00,25.4,18.6,30.06,North,7,0.0,0.0,75,0.00,,,0.00,Wunderground v.1.15,2013-02-20 15:58:00,
2013-02-20 08:03:00,26.0,18.8,30.06,NNW,337,0.0,2.0,74,0.00,,,0.00,Wunderground v.1.15,2013-02-20 16:03:00,
2013-02-20 08:09:00,26.9,19.4,30.06,NW,315,0.0,0.0,73,0.00,,,0.00,Wunderground v.1.15,2013-02-20 16:09:00,
2013-02-20 08:15:00,27.3,19.1,30.04,NW,315,0.0,0.0,71,0.00,,,0.00,Wunderground v.1.15,2013-02-20 16:15:00,
2013-02-20 08:22:00,27.8,19.6,30.04,NW,315,0.0,0.0,71,0.00,,,0.00,Wunderground v.1.15,2013-02-20 16:22:00,
2013-02-20 08:28:00,28.2,19.7,30.04,NW,315,0.0,1.0,70,0.00,,,0.00,Wunderground v.1.15,2013-02-20 16:28:00,
2013-02-20 08:33:00,28.8,19.9,30.03,NNE,20,0.0,0.0,69,0.00,,,0.00,Wunderground v.1.15,2013-02-20 16:33:00,
2013-02-20 08:39:00,29.3,19.7,30.03,NNE,20,0.0,0.0,67,0.00,,,0.00,Wunderground v.1.15,2013-02-20 16:39:00,
2013-02-20 08:45:00,29.7,19.7,30.02,WSW,241,0.0,0.0,66,0.00,,,0.00,Wunderground v.1.15,2013-02-20 16:45:00,
2013-02-20 08:52:00,30.0,19.7,30.02,WSW,251,0.0,0.0,65,0.00,,,0.00,Wunderground v.1.15,2013-02-20 16:52:00,
2013-02-20 08:58:00,30.1,19.0,30.02,WSW,253,0.0,0.0,63,0.00,,,0.00,Wunderground v.1.15,2013-02-20 16:58:00,
2013-02-20 09:03:00,30.4,19.3,30.03,West,261,0.0,0.0,63,0.00,,,0.00,Wunderground v.1.15,2013-02-20 17:03:00,
2013-02-20 20:59:00,28.4,11.6,30.07,ESE,120,0.0,0.0,49,0.00,,,0.00,Wunderground v.1.15,2013-02-21 04:59:00,
2013-02-20 21:02:00,28.4,12.1,30.07,ESE,120,0.0,0.0,50,0.00,,,0.00,Wunderground v.1.15,2013-02-21 05:02:00,
2013-02-20 21:04:00,28.2,11.9,30.07,ESE,120,0.0,0.0,50,0.00,,,0.00,Wunderground v.1.15,2013-02-21 05:04:00,
2013-02-20 21:06:00,28.2,11.9,30.07,ESE,121,0.0,0.0,50,0.00,,,0.00,Wunderground v.1.15,2013-02-21 05:06:00,
2013-02-20 21:11:00,28.1,11.8,30.07,ESE,120,0.0,1.0,50,0.00,,,0.00,Wunderground v.1.15,2013-02-21 05:11:00,
2013-02-20 21:18:00,27.9,11.6,30.05,ESE,120,0.0,1.0,50,0.00,,,0.00,Wunderground v.1.15,2013-02-21 05:18:00,
2013-02-20 21:23:00,27.9,11.6,30.05,ESE,120,0.0,0.0,50,0.00,,,0.00,Wunderground v.1.15,2013-02-21 05:23:00,
2013-02-20 21:29:00,27.6,11.8,30.05,ESE,120,0.0,0.0,51,0.00,,,0.00,Wunderground v.1.15,2013-02-21 05:29:00,
2013-02-20 21:36:00,27.3,11.5,30.06,ESE,120,0.0,0.0,51,0.00,,,0.00,Wunderground v.1.15,2013-02-21 05:36:00,
2013-02-20 21:41:00,27.2,11.4,30.06,ESE,120,0.0,0.0,51,0.00,,,0.00,Wunderground v.1.15,2013-02-21 05:41:00,
2013-02-20 21:48:00,26.9,12.0,30.07,ESE,120,0.0,0.0,53,0.00,,,0.00,Wunderground v.1.15,2013-02-21 05:48:00,
2013-02-20 21:53:00,26.6,11.7,30.07,ESE,120,0.0,0.0,53,0.00,,,0.00,Wunderground v.1.15,2013-02-21 05:53:00,
2013-02-20 21:59:00,26.4,12.0,30.07,ESE,120,0.0,0.0,54,0.00,,,0.00,Wunderground v.1.15,2013-02-21 05:59:00,
2013-02-20 22:06:00,26.3,11.9,30.07,ESE,120,0.0,0.0,54,0.00,,,0.00,Wunderground v.1.15,2013-02-21 06:06:00,
2013-02-20 22:12:00,26.0,11.2,30.07,ESE,120,0.0,1.0,53,0.00,,,0.00,Wunderground v.1.15,2013-02-21 06:12:00,
2013-02-20 22:18:00,25.6,11.2,30.07,ESE,120,0.0,1.0,54,0.00,,,0.00,Wunderground v.1.15,2013-02-21 06:18:00,
2013-02-20 22:23:00,25.0,11.5,30.07,ESE,120,0.0,2.0,56,0.00,,,0.00,Wunderground v.1.15,2013-02-21 06:23:00,
2013-02-20 22:29:00,24.5,11.8,30.07,ESE,120,0.0,1.0,58,0.00,,,0.00,Wunderground v.1.15,2013-02-21 06:29:00,
2013-02-20 22:35:00,24.4,11.7,30.07,ESE,120,1.0,4.0,58,0.00,,,0.00,Wunderground v.1.15,2013-02-21 06:35:00,
2013-02-20 22:42:00,24.2,11.9,30.07,ESE,120,1.0,1.0,59,0.00,,,0.00,Wunderground v.1.15,2013-02-21 06:42:00,
2013-02-20 22:48:00,24.2,11.9,30.08,ESE,114,1.0,2.0,59,0.00,,,0.00,Wunderground v.1.15,2013-02-21 06:48:00,
2013-02-20 22:54:00,24.2,11.9,30.08,ESE,114,1.0,1.0,59,0.00,,,0.00,Wunderground v.1.15,2013-02-21 06:54:00,
2013-02-20 22:59:00,24.1,12.2,30.08,ESE,114,0.0,1.0,60,0.00,,,0.00,Wunderground v.1.15,2013-02-21 06:59:00,
2013-02-20 23:05:00,24.1,12.2,30.08,ESE,114,1.0,2.0,60,0.00,,,0.00,Wunderground v.1.15,2013-02-21 07:05:00,
2013-02-20 23:11:00,24.2,12.3,30.08,ESE,113,1.0,2.0,60,0.00,,,0.00,Wunderground v.1.15,2013-02-21 07:11:00,
2013-02-20 23:18:00,24.4,12.1,30.04,ESE,106,2.0,4.0,59,0.00,,,0.00,Wunderground v.1.15,2013-02-21 07:18:00,
2013-02-20 23:23:00,24.4,12.1,30.04,ESE,106,2.0,2.0,59,0.00,,,0.00,Wunderground v.1.15,2013-02-21 07:23:00,
2013-02-20 23:30:00,24.4,12.5,30.04,ESE,116,2.0,2.0,60,0.00,,,0.00,Wunderground v.1.15,2013-02-21 07:30:00,
2013-02-20 23:35:00,24.2,12.3,30.04,ESE,114,1.0,2.0,60,0.00,,,0.00,Wunderground v.1.15,2013-02-21 07:35:00,
2013-02-20 23:41:00,24.1,12.2,30.04,ESE,114,0.0,0.0,60,0.00,,,0.00,Wunderground v.1.15,2013-02-21 07:41:00,